sensor_id;sensor_type;location;lat;lon;timestamp;P1;durP1;ratioP1;P2;durP2;ratioP2
11125;SDS011;5617;54.046;10.676;2024-03-29T00:00:06;2.90;;;2.60;;
11125;SDS011;5617;54.046;10.676;2024-03-29T00:02:14;2.80;;;2.60;;
11125;SDS011;5617;54.046;10.676;2024-03-29T00:04:21;7.50;;;6.67;;
11125;SDS011;5617;54.046;10.676;2024-03-29T00:06:29;14.83;;;12.47;;
11125;SDS011;5617;54.046;10.676;2024-03-29T00:08:37;5.50;;;5.00;;
11125;SDS011;5617;54.046;10.676;2024-03-29T00:10:46;4.70;;;3.30;;
11125;SDS011;5617;54.046;10.676;2024-03-29T00:12:53;4.47;;;3.20;;
11125;SDS011;5617;54.046;10.676;2024-03-29T00:15:01;5.13;;;3.93;;
11125;SDS011;5617;54.046;10.676;2024-03-29T00:17:08;20.00;;;13.43;;
11125;SDS011;5617;54.046;10.676;2024-03-29T00:19:19;29.00;;;21.03;;
11125;SDS011;5617;54.046;10.676;2024-03-29T00:21:26;9.50;;;7.53;;
11125;SDS011;5617;54.046;10.676;2024-03-29T00:23:33;5.40;;;4.60;;
11125;SDS011;5617;54.046;10.676;2024-03-29T00:25:42;43.73;;;31.53;;
11125;SDS011;5617;54.046;10.676;2024-03-29T00:27:50;23.93;;;17.67;;
11125;SDS011;5617;54.046;10.676;2024-03-29T00:29:57;22.00;;;17.03;;
11125;SDS011;5617;54.046;10.676;2024-03-29T00:32:05;6.73;;;4.70;;
11125;SDS011;5617;54.046;10.676;2024-03-29T00:34:19;13.40;;;8.63;;
11125;SDS011;5617;54.046;10.676;2024-03-29T00:36:26;5.90;;;2.93;;
11125;SDS011;5617;54.046;10.676;2024-03-29T00:38:34;2.57;;;2.10;;
11125;SDS011;5617;54.046;10.676;2024-03-29T00:40:43;1.93;;;1.70;;
11125;SDS011;5617;54.046;10.676;2024-03-29T00:42:50;2.50;;;1.80;;
11125;SDS011;5617;54.046;10.676;2024-03-29T00:44:57;1.23;;;1.10;;
11125;SDS011;5617;54.046;10.676;2024-03-29T00:47:08;2.23;;;1.40;;
11125;SDS011;5617;54.046;10.676;2024-03-29T00:49:15;1.67;;;1.57;;
11125;SDS011;5617;54.046;10.676;2024-03-29T00:51:22;2.20;;;1.40;;
11125;SDS011;5617;54.046;10.676;2024-03-29T00:53:33;1.30;;;1.20;;
11125;SDS011;5617;54.046;10.676;2024-03-29T00:55:40;1.53;;;1.27;;
11125;SDS011;5617;54.046;10.676;2024-03-29T00:57:51;1.83;;;1.20;;
11125;SDS011;5617;54.046;10.676;2024-03-29T00:59:58;2.97;;;1.10;;
11125;SDS011;5617;54.046;10.676;2024-03-29T01:02:14;1.90;;;1.17;;
11125;SDS011;5617;54.046;10.676;2024-03-29T01:04:21;1.93;;;0.90;;
11125;SDS011;5617;54.046;10.676;2024-03-29T01:06:28;2.27;;;1.60;;
11125;SDS011;5617;54.046;10.676;2024-03-29T01:08:36;3.50;;;1.90;;
11125;SDS011;5617;54.046;10.676;2024-03-29T01:10:44;3.37;;;2.57;;
11125;SDS011;5617;54.046;10.676;2024-03-29T01:12:51;4.10;;;2.40;;
11125;SDS011;5617;54.046;10.676;2024-03-29T01:14:59;2.33;;;1.50;;
11125;SDS011;5617;54.046;10.676;2024-03-29T01:17:06;11.23;;;6.17;;
11125;SDS011;5617;54.046;10.676;2024-03-29T01:19:17;9.17;;;6.03;;
11125;SDS011;5617;54.046;10.676;2024-03-29T01:21:25;56.87;;;36.10;;
11125;SDS011;5617;54.046;10.676;2024-03-29T01:23:32;16.97;;;11.33;;
11125;SDS011;5617;54.046;10.676;2024-03-29T01:25:40;44.40;;;27.33;;
11125;SDS011;5617;54.046;10.676;2024-03-29T01:27:48;46.80;;;29.03;;
11125;SDS011;5617;54.046;10.676;2024-03-29T01:29:56;36.87;;;22.80;;
11125;SDS011;5617;54.046;10.676;2024-03-29T01:32:03;3.67;;;2.70;;
11125;SDS011;5617;54.046;10.676;2024-03-29T01:34:11;2.20;;;1.57;;
11125;SDS011;5617;54.046;10.676;2024-03-29T01:36:18;1.67;;;1.23;;
11125;SDS011;5617;54.046;10.676;2024-03-29T01:38:25;2.97;;;1.50;;
11125;SDS011;5617;54.046;10.676;2024-03-29T01:40:36;1.70;;;1.13;;
11125;SDS011;5617;54.046;10.676;2024-03-29T01:42:43;1.43;;;0.97;;
11125;SDS011;5617;54.046;10.676;2024-03-29T01:44:52;2.97;;;1.57;;
11125;SDS011;5617;54.046;10.676;2024-03-29T01:47:00;9.63;;;5.23;;
11125;SDS011;5617;54.046;10.676;2024-03-29T01:49:09;6.93;;;4.20;;
11125;SDS011;5617;54.046;10.676;2024-03-29T01:51:16;9.10;;;5.27;;
11125;SDS011;5617;54.046;10.676;2024-03-29T01:53:25;8.23;;;3.40;;
11125;SDS011;5617;54.046;10.676;2024-03-29T01:55:34;5.60;;;3.60;;
11125;SDS011;5617;54.046;10.676;2024-03-29T01:57:48;4.10;;;2.93;;
11125;SDS011;5617;54.046;10.676;2024-03-29T01:59:58;4.10;;;1.67;;
11125;SDS011;5617;54.046;10.676;2024-03-29T02:02:11;6.30;;;3.83;;
11125;SDS011;5617;54.046;10.676;2024-03-29T02:04:21;6.60;;;4.37;;
11125;SDS011;5617;54.046;10.676;2024-03-29T02:06:29;5.00;;;3.50;;
11125;SDS011;5617;54.046;10.676;2024-03-29T02:08:38;5.73;;;2.70;;
11125;SDS011;5617;54.046;10.676;2024-03-29T02:10:47;5.87;;;3.07;;
11125;SDS011;5617;54.046;10.676;2024-03-29T02:12:57;2.17;;;0.90;;
11125;SDS011;5617;54.046;10.676;2024-03-29T02:15:07;5.43;;;3.20;;
11125;SDS011;5617;54.046;10.676;2024-03-29T02:17:15;10.50;;;5.70;;
11125;SDS011;5617;54.046;10.676;2024-03-29T02:19:23;1.70;;;1.40;;
11125;SDS011;5617;54.046;10.676;2024-03-29T02:21:35;1.60;;;1.00;;
11125;SDS011;5617;54.046;10.676;2024-03-29T02:23:56;2.40;;;1.13;;
11125;SDS011;5617;54.046;10.676;2024-03-29T02:26:06;2.13;;;1.03;;
11125;SDS011;5617;54.046;10.676;2024-03-29T02:28:14;2.37;;;1.27;;
11125;SDS011;5617;54.046;10.676;2024-03-29T02:30:24;2.23;;;1.30;;
11125;SDS011;5617;54.046;10.676;2024-03-29T02:32:32;1.83;;;0.80;;
11125;SDS011;5617;54.046;10.676;2024-03-29T02:34:40;1.17;;;1.03;;
11125;SDS011;5617;54.046;10.676;2024-03-29T02:36:48;0.80;;;0.80;;
11125;SDS011;5617;54.046;10.676;2024-03-29T02:38:58;2.43;;;1.10;;
11125;SDS011;5617;54.046;10.676;2024-03-29T02:41:05;2.50;;;0.77;;
11125;SDS011;5617;54.046;10.676;2024-03-29T02:43:13;1.13;;;0.80;;
11125;SDS011;5617;54.046;10.676;2024-03-29T02:45:20;0.70;;;0.70;;
11125;SDS011;5617;54.046;10.676;2024-03-29T02:47:28;2.00;;;0.80;;
11125;SDS011;5617;54.046;10.676;2024-03-29T02:49:35;4.33;;;0.80;;
11125;SDS011;5617;54.046;10.676;2024-03-29T02:51:43;1.90;;;1.00;;
11125;SDS011;5617;54.046;10.676;2024-03-29T02:53:51;0.97;;;0.80;;
11125;SDS011;5617;54.046;10.676;2024-03-29T02:56:00;2.40;;;0.83;;
11125;SDS011;5617;54.046;10.676;2024-03-29T02:58:08;1.73;;;0.90;;
11125;SDS011;5617;54.046;10.676;2024-03-29T03:00:16;1.60;;;0.80;;
11125;SDS011;5617;54.046;10.676;2024-03-29T03:02:23;1.47;;;1.03;;
11125;SDS011;5617;54.046;10.676;2024-03-29T03:04:31;1.27;;;0.80;;
11125;SDS011;5617;54.046;10.676;2024-03-29T03:06:39;2.63;;;0.93;;
11125;SDS011;5617;54.046;10.676;2024-03-29T03:08:47;1.53;;;0.80;;
11125;SDS011;5617;54.046;10.676;2024-03-29T03:11:13;2.87;;;0.90;;
11125;SDS011;5617;54.046;10.676;2024-03-29T03:13:21;1.57;;;0.80;;
11125;SDS011;5617;54.046;10.676;2024-03-29T03:15:30;1.57;;;1.00;;
11125;SDS011;5617;54.046;10.676;2024-03-29T03:17:37;1.70;;;0.80;;
11125;SDS011;5617;54.046;10.676;2024-03-29T03:19:45;2.40;;;0.97;;
11125;SDS011;5617;54.046;10.676;2024-03-29T03:21:52;1.53;;;0.80;;
11125;SDS011;5617;54.046;10.676;2024-03-29T03:24:00;0.80;;;0.80;;
11125;SDS011;5617;54.046;10.676;2024-03-29T03:26:07;1.37;;;1.00;;
11125;SDS011;5617;54.046;10.676;2024-03-29T03:28:17;1.93;;;0.90;;
11125;SDS011;5617;54.046;10.676;2024-03-29T03:30:24;1.63;;;0.80;;
11125;SDS011;5617;54.046;10.676;2024-03-29T03:32:33;1.50;;;0.80;;
11125;SDS011;5617;54.046;10.676;2024-03-29T03:34:41;1.67;;;0.70;;
11125;SDS011;5617;54.046;10.676;2024-03-29T03:36:49;2.63;;;0.67;;
11125;SDS011;5617;54.046;10.676;2024-03-29T03:38:56;2.37;;;0.80;;
11125;SDS011;5617;54.046;10.676;2024-03-29T03:41:04;1.00;;;0.80;;
11125;SDS011;5617;54.046;10.676;2024-03-29T03:43:11;0.77;;;0.60;;
11125;SDS011;5617;54.046;10.676;2024-03-29T03:45:21;1.37;;;0.90;;
11125;SDS011;5617;54.046;10.676;2024-03-29T03:47:28;1.70;;;0.90;;
11125;SDS011;5617;54.046;10.676;2024-03-29T03:49:35;1.63;;;0.67;;
11125;SDS011;5617;54.046;10.676;2024-03-29T03:51:43;1.83;;;0.77;;
11125;SDS011;5617;54.046;10.676;2024-03-29T03:53:50;1.37;;;0.70;;
11125;SDS011;5617;54.046;10.676;2024-03-29T03:55:59;1.07;;;0.60;;
11125;SDS011;5617;54.046;10.676;2024-03-29T03:58:06;1.90;;;0.73;;
11125;SDS011;5617;54.046;10.676;2024-03-29T04:00:14;1.47;;;0.63;;
11125;SDS011;5617;54.046;10.676;2024-03-29T04:02:26;2.20;;;0.67;;
11125;SDS011;5617;54.046;10.676;2024-03-29T04:04:34;3.83;;;1.00;;
11125;SDS011;5617;54.046;10.676;2024-03-29T04:06:42;1.47;;;0.70;;
11125;SDS011;5617;54.046;10.676;2024-03-29T04:08:49;1.27;;;0.90;;
11125;SDS011;5617;54.046;10.676;2024-03-29T04:10:57;2.30;;;0.87;;
11125;SDS011;5617;54.046;10.676;2024-03-29T04:13:04;2.20;;;0.70;;
11125;SDS011;5617;54.046;10.676;2024-03-29T04:15:12;2.87;;;0.93;;
11125;SDS011;5617;54.046;10.676;2024-03-29T04:17:22;3.27;;;0.80;;
11125;SDS011;5617;54.046;10.676;2024-03-29T04:19:35;1.03;;;0.70;;
11125;SDS011;5617;54.046;10.676;2024-03-29T04:21:42;1.33;;;0.63;;
11125;SDS011;5617;54.046;10.676;2024-03-29T04:23:50;1.97;;;0.87;;
11125;SDS011;5617;54.046;10.676;2024-03-29T04:25:57;1.03;;;0.70;;
11125;SDS011;5617;54.046;10.676;2024-03-29T04:28:06;1.30;;;0.60;;
11125;SDS011;5617;54.046;10.676;2024-03-29T04:30:13;1.80;;;0.70;;
11125;SDS011;5617;54.046;10.676;2024-03-29T04:32:23;2.10;;;0.60;;
11125;SDS011;5617;54.046;10.676;2024-03-29T04:34:30;0.90;;;0.50;;
11125;SDS011;5617;54.046;10.676;2024-03-29T04:36:40;2.33;;;0.70;;
11125;SDS011;5617;54.046;10.676;2024-03-29T04:38:48;2.17;;;0.67;;
11125;SDS011;5617;54.046;10.676;2024-03-29T04:40:57;1.27;;;0.70;;
11125;SDS011;5617;54.046;10.676;2024-03-29T04:43:06;1.80;;;0.80;;
11125;SDS011;5617;54.046;10.676;2024-03-29T04:45:14;1.60;;;0.80;;
11125;SDS011;5617;54.046;10.676;2024-03-29T04:47:22;0.93;;;0.60;;
11125;SDS011;5617;54.046;10.676;2024-03-29T04:49:30;1.43;;;0.80;;
11125;SDS011;5617;54.046;10.676;2024-03-29T04:51:42;2.10;;;1.00;;
11125;SDS011;5617;54.046;10.676;2024-03-29T04:53:50;1.23;;;0.80;;
11125;SDS011;5617;54.046;10.676;2024-03-29T04:55:58;2.03;;;0.83;;
11125;SDS011;5617;54.046;10.676;2024-03-29T04:58:06;1.97;;;0.80;;
11125;SDS011;5617;54.046;10.676;2024-03-29T05:00:16;2.83;;;0.90;;
11125;SDS011;5617;54.046;10.676;2024-03-29T05:02:25;2.00;;;1.10;;
11125;SDS011;5617;54.046;10.676;2024-03-29T05:04:33;3.27;;;1.00;;
11125;SDS011;5617;54.046;10.676;2024-03-29T05:06:44;1.40;;;0.93;;
11125;SDS011;5617;54.046;10.676;2024-03-29T05:08:52;1.00;;;0.80;;
11125;SDS011;5617;54.046;10.676;2024-03-29T05:11:00;2.80;;;1.00;;
11125;SDS011;5617;54.046;10.676;2024-03-29T05:13:09;2.23;;;0.90;;
11125;SDS011;5617;54.046;10.676;2024-03-29T05:15:16;0.90;;;0.80;;
11125;SDS011;5617;54.046;10.676;2024-03-29T05:17:28;2.43;;;1.00;;
11125;SDS011;5617;54.046;10.676;2024-03-29T05:19:36;1.37;;;1.00;;
11125;SDS011;5617;54.046;10.676;2024-03-29T05:21:45;3.13;;;1.10;;
11125;SDS011;5617;54.046;10.676;2024-03-29T05:23:52;1.97;;;0.90;;
11125;SDS011;5617;54.046;10.676;2024-03-29T05:26:01;1.83;;;1.03;;
11125;SDS011;5617;54.046;10.676;2024-03-29T05:28:09;2.50;;;1.00;;
11125;SDS011;5617;54.046;10.676;2024-03-29T05:30:16;1.87;;;0.90;;
11125;SDS011;5617;54.046;10.676;2024-03-29T05:32:24;0.83;;;0.83;;
11125;SDS011;5617;54.046;10.676;2024-03-29T05:34:36;1.03;;;0.80;;
11125;SDS011;5617;54.046;10.676;2024-03-29T05:36:43;1.83;;;1.10;;
11125;SDS011;5617;54.046;10.676;2024-03-29T05:38:53;2.10;;;1.00;;
11125;SDS011;5617;54.046;10.676;2024-03-29T05:41:01;2.23;;;1.00;;
11125;SDS011;5617;54.046;10.676;2024-03-29T05:43:08;3.40;;;1.03;;
11125;SDS011;5617;54.046;10.676;2024-03-29T05:45:23;1.47;;;0.70;;
11125;SDS011;5617;54.046;10.676;2024-03-29T05:47:33;1.73;;;0.90;;
11125;SDS011;5617;54.046;10.676;2024-03-29T05:49:41;2.43;;;0.90;;
11125;SDS011;5617;54.046;10.676;2024-03-29T05:51:52;3.90;;;0.90;;
11125;SDS011;5617;54.046;10.676;2024-03-29T05:54:02;3.13;;;1.00;;
11125;SDS011;5617;54.046;10.676;2024-03-29T05:56:10;3.33;;;0.90;;
11125;SDS011;5617;54.046;10.676;2024-03-29T05:58:18;1.57;;;0.80;;
11125;SDS011;5617;54.046;10.676;2024-03-29T06:00:26;1.80;;;0.93;;
11125;SDS011;5617;54.046;10.676;2024-03-29T06:02:35;1.53;;;0.80;;
11125;SDS011;5617;54.046;10.676;2024-03-29T06:04:43;2.13;;;0.90;;
11125;SDS011;5617;54.046;10.676;2024-03-29T06:06:53;2.10;;;0.80;;
11125;SDS011;5617;54.046;10.676;2024-03-29T06:09:06;1.00;;;0.70;;
11125;SDS011;5617;54.046;10.676;2024-03-29T06:11:16;1.20;;;0.87;;
11125;SDS011;5617;54.046;10.676;2024-03-29T06:13:24;2.47;;;1.10;;
11125;SDS011;5617;54.046;10.676;2024-03-29T06:15:52;1.07;;;0.63;;
11125;SDS011;5617;54.046;10.676;2024-03-29T06:18:17;2.10;;;0.83;;
11125;SDS011;5617;54.046;10.676;2024-03-29T06:20:25;1.53;;;0.87;;
11125;SDS011;5617;54.046;10.676;2024-03-29T06:22:33;1.03;;;0.70;;
11125;SDS011;5617;54.046;10.676;2024-03-29T06:24:43;3.00;;;0.80;;
11125;SDS011;5617;54.046;10.676;2024-03-29T06:26:51;0.93;;;0.70;;
11125;SDS011;5617;54.046;10.676;2024-03-29T06:29:00;2.13;;;0.70;;
11125;SDS011;5617;54.046;10.676;2024-03-29T06:31:08;1.00;;;0.60;;
11125;SDS011;5617;54.046;10.676;2024-03-29T06:33:15;1.90;;;0.50;;
11125;SDS011;5617;54.046;10.676;2024-03-29T06:35:23;1.73;;;0.70;;
11125;SDS011;5617;54.046;10.676;2024-03-29T06:37:32;1.40;;;0.60;;
11125;SDS011;5617;54.046;10.676;2024-03-29T06:39:40;2.37;;;0.83;;
11125;SDS011;5617;54.046;10.676;2024-03-29T06:41:50;1.60;;;0.80;;
11125;SDS011;5617;54.046;10.676;2024-03-29T06:43:58;2.80;;;0.73;;
11125;SDS011;5617;54.046;10.676;2024-03-29T06:46:06;1.73;;;0.77;;
11125;SDS011;5617;54.046;10.676;2024-03-29T06:48:15;1.27;;;0.70;;
11125;SDS011;5617;54.046;10.676;2024-03-29T06:50:29;2.07;;;0.70;;
11125;SDS011;5617;54.046;10.676;2024-03-29T06:52:38;1.57;;;0.60;;
11125;SDS011;5617;54.046;10.676;2024-03-29T06:54:50;2.53;;;1.10;;
11125;SDS011;5617;54.046;10.676;2024-03-29T06:56:59;0.97;;;0.77;;
11125;SDS011;5617;54.046;10.676;2024-03-29T06:59:10;1.40;;;0.60;;
11125;SDS011;5617;54.046;10.676;2024-03-29T07:01:18;1.87;;;0.83;;
11125;SDS011;5617;54.046;10.676;2024-03-29T07:03:26;1.20;;;0.67;;
11125;SDS011;5617;54.046;10.676;2024-03-29T07:05:34;1.03;;;0.70;;
11125;SDS011;5617;54.046;10.676;2024-03-29T07:07:43;2.57;;;0.80;;
11125;SDS011;5617;54.046;10.676;2024-03-29T07:09:54;1.40;;;0.60;;
11125;SDS011;5617;54.046;10.676;2024-03-29T07:12:05;2.23;;;0.50;;
11125;SDS011;5617;54.046;10.676;2024-03-29T07:14:16;1.33;;;0.83;;
11125;SDS011;5617;54.046;10.676;2024-03-29T07:16:25;2.27;;;1.13;;
11125;SDS011;5617;54.046;10.676;2024-03-29T07:18:35;2.43;;;1.10;;
11125;SDS011;5617;54.046;10.676;2024-03-29T07:20:43;0.80;;;0.80;;
11125;SDS011;5617;54.046;10.676;2024-03-29T07:22:51;2.00;;;0.90;;
11125;SDS011;5617;54.046;10.676;2024-03-29T07:24:59;2.63;;;0.80;;
11125;SDS011;5617;54.046;10.676;2024-03-29T07:27:09;2.27;;;1.00;;
11125;SDS011;5617;54.046;10.676;2024-03-29T07:29:19;2.77;;;1.00;;
11125;SDS011;5617;54.046;10.676;2024-03-29T07:31:27;1.53;;;0.80;;
11125;SDS011;5617;54.046;10.676;2024-03-29T07:33:36;2.50;;;0.90;;
11125;SDS011;5617;54.046;10.676;2024-03-29T07:35:44;2.20;;;0.80;;
11125;SDS011;5617;54.046;10.676;2024-03-29T07:37:52;1.23;;;0.73;;
11125;SDS011;5617;54.046;10.676;2024-03-29T07:40:00;1.27;;;0.70;;
11125;SDS011;5617;54.046;10.676;2024-03-29T07:42:15;2.33;;;1.03;;
11125;SDS011;5617;54.046;10.676;2024-03-29T07:44:23;3.17;;;0.63;;
11125;SDS011;5617;54.046;10.676;2024-03-29T07:46:32;2.47;;;0.93;;
11125;SDS011;5617;54.046;10.676;2024-03-29T07:48:41;0.77;;;0.57;;
11125;SDS011;5617;54.046;10.676;2024-03-29T07:50:48;1.83;;;0.73;;
11125;SDS011;5617;54.046;10.676;2024-03-29T07:52:57;0.77;;;0.70;;
11125;SDS011;5617;54.046;10.676;2024-03-29T07:55:06;0.70;;;0.60;;
11125;SDS011;5617;54.046;10.676;2024-03-29T07:57:21;2.23;;;0.80;;
11125;SDS011;5617;54.046;10.676;2024-03-29T07:59:29;1.27;;;0.83;;
11125;SDS011;5617;54.046;10.676;2024-03-29T08:01:37;1.20;;;0.70;;
11125;SDS011;5617;54.046;10.676;2024-03-29T08:03:49;1.13;;;0.70;;
11125;SDS011;5617;54.046;10.676;2024-03-29T08:05:59;2.23;;;0.70;;
11125;SDS011;5617;54.046;10.676;2024-03-29T08:08:12;1.70;;;0.97;;
11125;SDS011;5617;54.046;10.676;2024-03-29T08:10:21;0.97;;;0.60;;
11125;SDS011;5617;54.046;10.676;2024-03-29T08:12:33;2.30;;;0.80;;
11125;SDS011;5617;54.046;10.676;2024-03-29T08:14:42;1.47;;;0.87;;
11125;SDS011;5617;54.046;10.676;2024-03-29T08:16:50;0.60;;;0.60;;
11125;SDS011;5617;54.046;10.676;2024-03-29T08:19:01;0.80;;;0.60;;
11125;SDS011;5617;54.046;10.676;2024-03-29T08:21:09;0.93;;;0.67;;
11125;SDS011;5617;54.046;10.676;2024-03-29T08:23:18;2.23;;;0.60;;
11125;SDS011;5617;54.046;10.676;2024-03-29T08:25:27;1.40;;;0.60;;
11125;SDS011;5617;54.046;10.676;2024-03-29T08:27:36;1.63;;;0.70;;
11125;SDS011;5617;54.046;10.676;2024-03-29T08:29:45;0.53;;;0.50;;
11125;SDS011;5617;54.046;10.676;2024-03-29T08:31:56;1.27;;;0.60;;
11125;SDS011;5617;54.046;10.676;2024-03-29T08:34:08;2.20;;;0.63;;
11125;SDS011;5617;54.046;10.676;2024-03-29T08:36:19;1.70;;;0.70;;
11125;SDS011;5617;54.046;10.676;2024-03-29T08:38:30;2.53;;;1.00;;
11125;SDS011;5617;54.046;10.676;2024-03-29T08:40:39;1.10;;;0.70;;
11125;SDS011;5617;54.046;10.676;2024-03-29T08:42:51;1.53;;;0.70;;
11125;SDS011;5617;54.046;10.676;2024-03-29T08:45:01;0.97;;;0.70;;
11125;SDS011;5617;54.046;10.676;2024-03-29T08:47:09;2.10;;;0.70;;
11125;SDS011;5617;54.046;10.676;2024-03-29T08:49:18;1.83;;;0.70;;
11125;SDS011;5617;54.046;10.676;2024-03-29T08:51:28;0.97;;;0.60;;
11125;SDS011;5617;54.046;10.676;2024-03-29T08:53:36;1.43;;;0.70;;
11125;SDS011;5617;54.046;10.676;2024-03-29T08:55:45;1.43;;;0.60;;
11125;SDS011;5617;54.046;10.676;2024-03-29T08:57:56;1.43;;;0.60;;
11125;SDS011;5617;54.046;10.676;2024-03-29T09:00:08;2.40;;;0.80;;
11125;SDS011;5617;54.046;10.676;2024-03-29T09:02:17;1.03;;;0.60;;
11125;SDS011;5617;54.046;10.676;2024-03-29T09:04:25;1.40;;;0.50;;
11125;SDS011;5617;54.046;10.676;2024-03-29T09:06:33;0.87;;;0.53;;
11125;SDS011;5617;54.046;10.676;2024-03-29T09:08:41;2.17;;;0.70;;
11125;SDS011;5617;54.046;10.676;2024-03-29T09:10:50;2.00;;;0.60;;
11125;SDS011;5617;54.046;10.676;2024-03-29T09:12:59;2.97;;;0.80;;
11125;SDS011;5617;54.046;10.676;2024-03-29T09:15:07;1.90;;;0.53;;
11125;SDS011;5617;54.046;10.676;2024-03-29T09:17:19;1.67;;;0.57;;
11125;SDS011;5617;54.046;10.676;2024-03-29T09:19:31;0.90;;;0.57;;
11125;SDS011;5617;54.046;10.676;2024-03-29T09:21:39;0.60;;;0.50;;
11125;SDS011;5617;54.046;10.676;2024-03-29T09:23:49;1.60;;;0.60;;
11125;SDS011;5617;54.046;10.676;2024-03-29T09:25:59;1.20;;;0.60;;
11125;SDS011;5617;54.046;10.676;2024-03-29T09:28:08;2.17;;;0.50;;
11125;SDS011;5617;54.046;10.676;2024-03-29T09:30:16;1.30;;;0.80;;
11125;SDS011;5617;54.046;10.676;2024-03-29T09:32:25;1.30;;;0.60;;
11125;SDS011;5617;54.046;10.676;2024-03-29T09:34:33;0.77;;;0.70;;
11125;SDS011;5617;54.046;10.676;2024-03-29T09:36:41;1.67;;;0.80;;
11125;SDS011;5617;54.046;10.676;2024-03-29T09:38:49;2.30;;;0.83;;
11125;SDS011;5617;54.046;10.676;2024-03-29T09:41:00;2.35;;;0.70;;
11125;SDS011;5617;54.046;10.676;2024-03-29T09:43:18;0.93;;;0.60;;
11125;SDS011;5617;54.046;10.676;2024-03-29T09:45:37;1.30;;;0.70;;
11125;SDS011;5617;54.046;10.676;2024-03-29T09:47:45;1.60;;;0.77;;
11125;SDS011;5617;54.046;10.676;2024-03-29T09:49:54;0.70;;;0.60;;
11125;SDS011;5617;54.046;10.676;2024-03-29T09:52:04;1.27;;;0.70;;
11125;SDS011;5617;54.046;10.676;2024-03-29T09:54:13;1.40;;;0.80;;
11125;SDS011;5617;54.046;10.676;2024-03-29T09:56:28;1.17;;;0.73;;
11125;SDS011;5617;54.046;10.676;2024-03-29T09:58:41;0.97;;;0.67;;
11125;SDS011;5617;54.046;10.676;2024-03-29T10:01:03;2.23;;;0.67;;
11125;SDS011;5617;54.046;10.676;2024-03-29T10:03:12;0.70;;;0.50;;
11125;SDS011;5617;54.046;10.676;2024-03-29T10:05:21;1.27;;;0.73;;
11125;SDS011;5617;54.046;10.676;2024-03-29T10:07:30;0.97;;;0.63;;
11125;SDS011;5617;54.046;10.676;2024-03-29T10:09:38;0.83;;;0.60;;
11125;SDS011;5617;54.046;10.676;2024-03-29T10:11:49;1.00;;;0.50;;
11125;SDS011;5617;54.046;10.676;2024-03-29T10:13:59;0.90;;;0.60;;
11125;SDS011;5617;54.046;10.676;2024-03-29T10:16:07;2.33;;;1.43;;
11125;SDS011;5617;54.046;10.676;2024-03-29T10:18:17;1.60;;;0.70;;
11125;SDS011;5617;54.046;10.676;2024-03-29T10:20:31;1.20;;;0.70;;
11125;SDS011;5617;54.046;10.676;2024-03-29T10:22:40;2.63;;;0.50;;
11125;SDS011;5617;54.046;10.676;2024-03-29T10:24:48;1.50;;;0.90;;
11125;SDS011;5617;54.046;10.676;2024-03-29T10:26:56;0.50;;;0.50;;
11125;SDS011;5617;54.046;10.676;2024-03-29T10:29:05;1.63;;;1.10;;
11125;SDS011;5617;54.046;10.676;2024-03-29T10:31:13;1.03;;;0.73;;
11125;SDS011;5617;54.046;10.676;2024-03-29T10:33:27;2.20;;;1.27;;
11125;SDS011;5617;54.046;10.676;2024-03-29T10:35:41;3.07;;;0.90;;
11125;SDS011;5617;54.046;10.676;2024-03-29T10:37:49;3.07;;;2.50;;
11125;SDS011;5617;54.046;10.676;2024-03-29T10:39:57;3.60;;;2.47;;
11125;SDS011;5617;54.046;10.676;2024-03-29T10:42:05;1.33;;;1.20;;
11125;SDS011;5617;54.046;10.676;2024-03-29T10:44:13;2.23;;;1.53;;
11125;SDS011;5617;54.046;10.676;2024-03-29T10:46:25;2.37;;;1.90;;
11125;SDS011;5617;54.046;10.676;2024-03-29T10:48:35;3.77;;;1.87;;
11125;SDS011;5617;54.046;10.676;2024-03-29T10:50:44;2.80;;;2.47;;
11125;SDS011;5617;54.046;10.676;2024-03-29T10:52:54;2.07;;;1.60;;
11125;SDS011;5617;54.046;10.676;2024-03-29T10:55:04;0.73;;;0.73;;
11125;SDS011;5617;54.046;10.676;2024-03-29T10:57:19;3.07;;;1.97;;
11125;SDS011;5617;54.046;10.676;2024-03-29T10:59:34;1.40;;;1.10;;
11125;SDS011;5617;54.046;10.676;2024-03-29T11:02:05;1.80;;;1.10;;
11125;SDS011;5617;54.046;10.676;2024-03-29T11:04:21;4.73;;;4.33;;
11125;SDS011;5617;54.046;10.676;2024-03-29T11:06:36;8.10;;;7.30;;
11125;SDS011;5617;54.046;10.676;2024-03-29T11:08:47;3.87;;;2.67;;
11125;SDS011;5617;54.046;10.676;2024-03-29T11:10:58;3.70;;;2.30;;
11125;SDS011;5617;54.046;10.676;2024-03-29T11:13:09;2.20;;;1.60;;
11125;SDS011;5617;54.046;10.676;2024-03-29T11:15:26;4.53;;;3.13;;
11125;SDS011;5617;54.046;10.676;2024-03-29T11:17:35;1.73;;;1.47;;
11125;SDS011;5617;54.046;10.676;2024-03-29T11:19:44;2.27;;;1.80;;
11125;SDS011;5617;54.046;10.676;2024-03-29T11:21:51;0.97;;;0.77;;
11125;SDS011;5617;54.046;10.676;2024-03-29T11:24:03;1.00;;;0.90;;
11125;SDS011;5617;54.046;10.676;2024-03-29T11:26:11;0.70;;;0.60;;
11125;SDS011;5617;54.046;10.676;2024-03-29T11:28:26;1.17;;;0.73;;
11125;SDS011;5617;54.046;10.676;2024-03-29T11:30:46;1.83;;;0.80;;
11125;SDS011;5617;54.046;10.676;2024-03-29T11:32:55;0.90;;;0.70;;
11125;SDS011;5617;54.046;10.676;2024-03-29T11:35:13;1.00;;;0.70;;
11125;SDS011;5617;54.046;10.676;2024-03-29T11:37:21;1.53;;;1.10;;
11125;SDS011;5617;54.046;10.676;2024-03-29T11:39:37;1.27;;;0.77;;
11125;SDS011;5617;54.046;10.676;2024-03-29T11:41:47;1.10;;;0.97;;
11125;SDS011;5617;54.046;10.676;2024-03-29T11:43:55;2.37;;;0.70;;
11125;SDS011;5617;54.046;10.676;2024-03-29T11:46:06;1.13;;;0.80;;
11125;SDS011;5617;54.046;10.676;2024-03-29T11:48:15;2.67;;;0.97;;
11125;SDS011;5617;54.046;10.676;2024-03-29T11:50:24;1.97;;;1.20;;
11125;SDS011;5617;54.046;10.676;2024-03-29T11:52:32;2.13;;;0.90;;
11125;SDS011;5617;54.046;10.676;2024-03-29T11:54:41;1.60;;;0.90;;
11125;SDS011;5617;54.046;10.676;2024-03-29T11:56:49;0.93;;;0.80;;
11125;SDS011;5617;54.046;10.676;2024-03-29T11:59:00;1.17;;;1.00;;
11125;SDS011;5617;54.046;10.676;2024-03-29T12:01:08;2.43;;;0.90;;
11125;SDS011;5617;54.046;10.676;2024-03-29T12:03:16;1.80;;;1.00;;
11125;SDS011;5617;54.046;10.676;2024-03-29T12:05:26;1.67;;;0.63;;
11125;SDS011;5617;54.046;10.676;2024-03-29T12:07:38;3.40;;;3.10;;
11125;SDS011;5617;54.046;10.676;2024-03-29T12:09:46;0.77;;;0.77;;
11125;SDS011;5617;54.046;10.676;2024-03-29T12:11:55;1.93;;;0.70;;
11125;SDS011;5617;54.046;10.676;2024-03-29T12:14:11;1.93;;;1.50;;
11125;SDS011;5617;54.046;10.676;2024-03-29T12:16:21;5.63;;;5.20;;
11125;SDS011;5617;54.046;10.676;2024-03-29T12:18:29;2.50;;;1.20;;
11125;SDS011;5617;54.046;10.676;2024-03-29T12:20:38;1.40;;;1.10;;
11125;SDS011;5617;54.046;10.676;2024-03-29T12:22:45;2.60;;;0.80;;
11125;SDS011;5617;54.046;10.676;2024-03-29T12:24:54;1.77;;;0.93;;
11125;SDS011;5617;54.046;10.676;2024-03-29T12:27:05;1.90;;;0.80;;
11125;SDS011;5617;54.046;10.676;2024-03-29T12:29:16;1.83;;;0.93;;
11125;SDS011;5617;54.046;10.676;2024-03-29T12:31:26;2.17;;;0.80;;
11125;SDS011;5617;54.046;10.676;2024-03-29T12:33:34;2.67;;;1.50;;
11125;SDS011;5617;54.046;10.676;2024-03-29T12:35:42;3.00;;;1.13;;
11125;SDS011;5617;54.046;10.676;2024-03-29T12:37:51;1.93;;;1.03;;
11125;SDS011;5617;54.046;10.676;2024-03-29T12:40:01;3.03;;;1.00;;
11125;SDS011;5617;54.046;10.676;2024-03-29T12:42:17;1.50;;;0.90;;
11125;SDS011;5617;54.046;10.676;2024-03-29T12:44:25;2.07;;;1.17;;
11125;SDS011;5617;54.046;10.676;2024-03-29T12:46:35;1.77;;;0.90;;
11125;SDS011;5617;54.046;10.676;2024-03-29T12:48:43;1.90;;;1.00;;
11125;SDS011;5617;54.046;10.676;2024-03-29T12:50:52;3.53;;;1.30;;
11125;SDS011;5617;54.046;10.676;2024-03-29T12:53:00;2.17;;;1.17;;
11125;SDS011;5617;54.046;10.676;2024-03-29T12:55:16;3.73;;;1.30;;
11125;SDS011;5617;54.046;10.676;2024-03-29T12:57:27;2.43;;;1.03;;
11125;SDS011;5617;54.046;10.676;2024-03-29T12:59:40;1.20;;;1.00;;